sensor_id;sensor_type;location;lat;lon;timestamp;temperature;humidity
15821;DHT22;8011;51.650;7.240;2022-07-06T03:01:28;13.70;99.90
15821;DHT22;8011;51.650;7.240;2022-07-06T03:03:53;13.80;99.90
15821;DHT22;8011;51.650;7.240;2022-07-06T03:06:19;13.70;99.90
15821;DHT22;8011;51.650;7.240;2022-07-06T03:08:45;13.70;99.90
15821;DHT22;8011;51.650;7.240;2022-07-06T03:11:10;13.70;99.90
15821;DHT22;8011;51.650;7.240;2022-07-06T03:13:36;13.70;99.90
15821;DHT22;8011;51.650;7.240;2022-07-06T03:16:02;13.70;99.90
15821;DHT22;8011;51.650;7.240;2022-07-06T03:18:28;13.70;99.90
15821;DHT22;8011;51.650;7.240;2022-07-06T03:20:53;13.70;99.90
15821;DHT22;8011;51.650;7.240;2022-07-06T03:23:19;13.70;99.90
15821;DHT22;8011;51.650;7.240;2022-07-06T03:25:46;13.60;99.90
15821;DHT22;8011;51.650;7.240;2022-07-06T03:28:11;13.60;99.90
15821;DHT22;8011;51.650;7.240;2022-07-06T03:30:37;13.60;99.90
15821;DHT22;8011;51.650;7.240;2022-07-06T03:33:03;13.60;99.90
15821;DHT22;8011;51.650;7.240;2022-07-06T03:35:28;13.60;99.90
15821;DHT22;8011;51.650;7.240;2022-07-06T03:37:54;13.60;99.90
15821;DHT22;8011;51.650;7.240;2022-07-06T03:40:20;13.60;99.90
15821;DHT22;8011;51.650;7.240;2022-07-06T03:42:45;13.60;99.90
15821;DHT22;8011;51.650;7.240;2022-07-06T03:45:11;13.60;99.90
15821;DHT22;8011;51.650;7.240;2022-07-06T03:47:37;13.60;99.90
15821;DHT22;8011;51.650;7.240;2022-07-06T03:50:03;13.60;99.90
15821;DHT22;8011;51.650;7.240;2022-07-06T03:52:29;13.50;99.90
15821;DHT22;8011;51.650;7.240;2022-07-06T03:54:55;13.50;99.90
15821;DHT22;8011;51.650;7.240;2022-07-06T03:57:21;13.40;99.90
15821;DHT22;8011;51.650;7.240;2022-07-06T03:59:47;13.30;99.90
15821;DHT22;8011;51.650;7.240;2022-07-06T04:02:13;13.30;99.90
15821;DHT22;8011;51.650;7.240;2022-07-06T04:04:38;13.30;99.90
15821;DHT22;8011;51.650;7.240;2022-07-06T04:07:04;13.40;99.90
15821;DHT22;8011;51.650;7.240;2022-07-06T04:09:30;13.40;99.90
15821;DHT22;8011;51.650;7.240;2022-07-06T04:11:56;13.40;99.90
15821;DHT22;8011;51.650;7.240;2022-07-06T04:14:21;13.40;99.90
15821;DHT22;8011;51.650;7.240;2022-07-06T04:16:47;13.50;99.90
15821;DHT22;8011;51.650;7.240;2022-07-06T04:19:13;13.50;99.90
15821;DHT22;8011;51.650;7.240;2022-07-06T04:21:40;13.50;99.90
15821;DHT22;8011;51.650;7.240;2022-07-06T04:24:05;13.50;99.90
15821;DHT22;8011;51.650;7.240;2022-07-06T04:26:31;13.40;99.90
15821;DHT22;8011;51.650;7.240;2022-07-06T04:28:57;13.40;99.90
15821;DHT22;8011;51.650;7.240;2022-07-06T04:31:22;13.40;99.90
15821;DHT22;8011;51.650;7.240;2022-07-06T04:33:48;13.40;99.90
15821;DHT22;8011;51.650;7.240;2022-07-06T04:36:14;13.40;99.90
15821;DHT22;8011;51.650;7.240;2022-07-06T04:38:39;13.40;99.90
15821;DHT22;8011;51.650;7.240;2022-07-06T04:41:05;13.50;99.90
15821;DHT22;8011;51.650;7.240;2022-07-06T04:43:31;13.50;99.90
15821;DHT22;8011;51.650;7.240;2022-07-06T04:45:56;13.50;99.90
15821;DHT22;8011;51.650;7.240;2022-07-06T04:48:22;13.60;99.90
15821;DHT22;8011;51.650;7.240;2022-07-06T04:50:48;13.70;99.90
15821;DHT22;8011;51.650;7.240;2022-07-06T04:53:13;13.70;99.90
15821;DHT22;8011;51.650;7.240;2022-07-06T04:55:39;13.80;99.90
15821;DHT22;8011;51.650;7.240;2022-07-06T04:58:05;13.90;99.90
15821;DHT22;8011;51.650;7.240;2022-07-06T05:00:31;14.00;99.90
15821;DHT22;8011;51.650;7.240;2022-07-06T05:02:56;14.10;99.90
15821;DHT22;8011;51.650;7.240;2022-07-06T05:05:22;14.20;99.90
15821;DHT22;8011;51.650;7.240;2022-07-06T05:07:48;14.30;99.90
15821;DHT22;8011;51.650;7.240;2022-07-06T05:10:14;14.40;99.90
15821;DHT22;8011;51.650;7.240;2022-07-06T05:12:40;14.50;99.90
15821;DHT22;8011;51.650;7.240;2022-07-06T05:15:07;14.50;99.90
15821;DHT22;8011;51.650;7.240;2022-07-06T05:17:33;14.70;99.90
15821;DHT22;8011;51.650;7.240;2022-07-06T05:19:58;14.80;99.90
15821;DHT22;8011;51.650;7.240;2022-07-06T05:22:24;15.00;99.90
15821;DHT22;8011;51.650;7.240;2022-07-06T05:24:50;14.90;99.90
15821;DHT22;8011;51.650;7.240;2022-07-06T05:27:16;14.90;99.90
15821;DHT22;8011;51.650;7.240;2022-07-06T05:29:42;14.80;99.90
15821;DHT22;8011;51.650;7.240;2022-07-06T05:32:07;14.80;99.90
15821;DHT22;8011;51.650;7.240;2022-07-06T05:34:33;14.90;99.90
15821;DHT22;8011;51.650;7.240;2022-07-06T05:36:59;14.90;99.90
15821;DHT22;8011;51.650;7.240;2022-07-06T05:39:25;15.00;99.90
15821;DHT22;8011;51.650;7.240;2022-07-06T05:41:50;15.00;99.90
15821;DHT22;8011;51.650;7.240;2022-07-06T05:44:16;15.10;99.90
15821;DHT22;8011;51.650;7.240;2022-07-06T05:46:42;15.20;99.90
15821;DHT22;8011;51.650;7.240;2022-07-06T05:49:07;15.30;99.90
15821;DHT22;8011;51.650;7.240;2022-07-06T05:51:51;15.40;99.90
15821;DHT22;8011;51.650;7.240;2022-07-06T05:54:17;15.40;99.90
15821;DHT22;8011;51.650;7.240;2022-07-06T05:56:43;15.40;99.90
15821;DHT22;8011;51.650;7.240;2022-07-06T05:59:08;15.40;99.90
15821;DHT22;8011;51.650;7.240;2022-07-06T06:01:34;15.40;99.90
15821;DHT22;8011;51.650;7.240;2022-07-06T06:04:00;15.50;99.90
15821;DHT22;8011;51.650;7.240;2022-07-06T06:06:26;15.50;99.90
15821;DHT22;8011;51.650;7.240;2022-07-06T06:08:52;15.50;99.90
15821;DHT22;8011;51.650;7.240;2022-07-06T06:11:18;15.50;99.90
15821;DHT22;8011;51.650;7.240;2022-07-06T06:13:43;15.50;99.90
15821;DHT22;8011;51.650;7.240;2022-07-06T06:16:09;15.40;99.90
15821;DHT22;8011;51.650;7.240;2022-07-06T06:18:35;15.40;99.90
15821;DHT22;8011;51.650;7.240;2022-07-06T06:21:01;15.30;99.90
15821;DHT22;8011;51.650;7.240;2022-07-06T06:23:27;15.40;99.90
15821;DHT22;8011;51.650;7.240;2022-07-06T06:25:52;15.50;99.90
15821;DHT22;8011;51.650;7.240;2022-07-06T06:28:18;15.60;99.90
15821;DHT22;8011;51.650;7.240;2022-07-06T06:30:44;15.70;99.90
15821;DHT22;8011;51.650;7.240;2022-07-06T06:33:14;15.70;99.90
15821;DHT22;8011;51.650;7.240;2022-07-06T06:35:48;15.80;99.90
15821;DHT22;8011;51.650;7.240;2022-07-06T06:38:15;15.80;99.90
15821;DHT22;8011;51.650;7.240;2022-07-06T06:40:41;15.80;99.90
15821;DHT22;8011;51.650;7.240;2022-07-06T06:43:07;15.70;99.90
15821;DHT22;8011;51.650;7.240;2022-07-06T06:45:33;15.80;99.90
15821;DHT22;8011;51.650;7.240;2022-07-06T06:47:58;15.80;99.90
15821;DHT22;8011;51.650;7.240;2022-07-06T06:50:24;15.80;99.90
15821;DHT22;8011;51.650;7.240;2022-07-06T06:52:51;15.80;99.90
15821;DHT22;8011;51.650;7.240;2022-07-06T06:55:17;15.90;99.90
15821;DHT22;8011;51.650;7.240;2022-07-06T06:57:44;15.90;99.90
15821;DHT22;8011;51.650;7.240;2022-07-06T07:00:11;16.00;99.90
15821;DHT22;8011;51.650;7.240;2022-07-06T07:02:37;16.10;99.90
15821;DHT22;8011;51.650;7.240;2022-07-06T07:05:05;16.20;99.90
15821;DHT22;8011;51.650;7.240;2022-07-06T07:07:31;16.40;99.90
15821;DHT22;8011;51.650;7.240;2022-07-06T07:09:57;16.50;99.90
15821;DHT22;8011;51.650;7.240;2022-07-06T07:12:23;16.50;99.90
15821;DHT22;8011;51.650;7.240;2022-07-06T07:14:49;16.50;99.90
15821;DHT22;8011;51.650;7.240;2022-07-06T07:17:15;16.40;99.90
15821;DHT22;8011;51.650;7.240;2022-07-06T07:19:41;16.40;99.90
15821;DHT22;8011;51.650;7.240;2022-07-06T07:22:06;16.50;99.90
15821;DHT22;8011;51.650;7.240;2022-07-06T07:24:32;16.50;99.90
15821;DHT22;8011;51.650;7.240;2022-07-06T07:26:58;16.50;99.90
15821;DHT22;8011;51.650;7.240;2022-07-06T07:29:23;16.60;99.90
15821;DHT22;8011;51.650;7.240;2022-07-06T07:31:49;16.70;99.90
15821;DHT22;8011;51.650;7.240;2022-07-06T07:34:15;16.70;99.90
15821;DHT22;8011;51.650;7.240;2022-07-06T07:36:41;16.80;99.90
15821;DHT22;8011;51.650;7.240;2022-07-06T07:39:07;16.80;99.90
15821;DHT22;8011;51.650;7.240;2022-07-06T07:41:33;16.90;99.90
15821;DHT22;8011;51.650;7.240;2022-07-06T07:43:58;17.00;99.90
15821;DHT22;8011;51.650;7.240;2022-07-06T07:46:24;17.00;99.90
15821;DHT22;8011;51.650;7.240;2022-07-06T07:48:49;17.00;99.90
15821;DHT22;8011;51.650;7.240;2022-07-06T07:51:15;17.10;99.90
15821;DHT22;8011;51.650;7.240;2022-07-06T07:53:41;17.20;99.90
15821;DHT22;8011;51.650;7.240;2022-07-06T07:56:06;17.10;99.90
15821;DHT22;8011;51.650;7.240;2022-07-06T07:58:32;17.10;99.90
15821;DHT22;8011;51.650;7.240;2022-07-06T08:00:58;17.00;99.90
15821;DHT22;8011;51.650;7.240;2022-07-06T08:03:24;17.10;99.90
15821;DHT22;8011;51.650;7.240;2022-07-06T08:05:49;17.20;99.90
15821;DHT22;8011;51.650;7.240;2022-07-06T08:08:16;17.20;99.90
15821;DHT22;8011;51.650;7.240;2022-07-06T08:10:42;17.30;99.90
15821;DHT22;8011;51.650;7.240;2022-07-06T08:13:07;17.30;99.90
15821;DHT22;8011;51.650;7.240;2022-07-06T08:15:33;17.30;99.90
15821;DHT22;8011;51.650;7.240;2022-07-06T08:17:59;17.20;99.90
15821;DHT22;8011;51.650;7.240;2022-07-06T08:20:25;17.20;99.90
15821;DHT22;8011;51.650;7.240;2022-07-06T08:22:51;17.30;99.90
15821;DHT22;8011;51.650;7.240;2022-07-06T08:25:17;17.40;99.90
15821;DHT22;8011;51.650;7.240;2022-07-06T08:27:43;17.40;99.90
15821;DHT22;8011;51.650;7.240;2022-07-06T08:30:09;17.50;99.90
15821;DHT22;8011;51.650;7.240;2022-07-06T08:32:42;17.50;99.90
15821;DHT22;8011;51.650;7.240;2022-07-06T08:35:09;17.50;99.90
15821;DHT22;8011;51.650;7.240;2022-07-06T08:37:35;17.50;99.90
15821;DHT22;8011;51.650;7.240;2022-07-06T08:40:01;17.70;99.90
15821;DHT22;8011;51.650;7.240;2022-07-06T08:42:32;17.60;99.90
15821;DHT22;8011;51.650;7.240;2022-07-06T08:45:00;17.60;99.90
15821;DHT22;8011;51.650;7.240;2022-07-06T08:47:30;17.70;99.90
15821;DHT22;8011;51.650;7.240;2022-07-06T08:49:56;17.80;99.90
15821;DHT22;8011;51.650;7.240;2022-07-06T08:52:23;17.90;99.90
15821;DHT22;8011;51.650;7.240;2022-07-06T08:54:49;17.90;99.90
15821;DHT22;8011;51.650;7.240;2022-07-06T08:57:15;17.90;99.90
15821;DHT22;8011;51.650;7.240;2022-07-06T08:59:41;18.00;99.90
15821;DHT22;8011;51.650;7.240;2022-07-06T09:02:10;18.10;99.90
15821;DHT22;8011;51.650;7.240;2022-07-06T09:04:36;18.10;99.90
15821;DHT22;8011;51.650;7.240;2022-07-06T09:07:02;18.10;99.90
15821;DHT22;8011;51.650;7.240;2022-07-06T09:09:29;18.20;99.90
15821;DHT22;8011;51.650;7.240;2022-07-06T09:11:58;18.20;99.90
15821;DHT22;8011;51.650;7.240;2022-07-06T09:17:00;18.20;99.90
15821;DHT22;8011;51.650;7.240;2022-07-06T09:19:27;18.40;99.90
15821;DHT22;8011;51.650;7.240;2022-07-06T09:21:53;18.40;99.90
15821;DHT22;8011;51.650;7.240;2022-07-06T09:24:19;18.40;99.90
15821;DHT22;8011;51.650;7.240;2022-07-06T09:26:47;18.60;99.90
15821;DHT22;8011;51.650;7.240;2022-07-06T09:29:13;18.80;99.90
15821;DHT22;8011;51.650;7.240;2022-07-06T09:31:39;18.90;99.90
15821;DHT22;8011;51.650;7.240;2022-07-06T09:34:07;19.00;99.90
15821;DHT22;8011;51.650;7.240;2022-07-06T09:42:04;19.20;99.90
15821;DHT22;8011;51.650;7.240;2022-07-06T09:44:34;19.40;99.90
15821;DHT22;8011;51.650;7.240;2022-07-06T09:47:04;19.50;99.90
15821;DHT22;8011;51.650;7.240;2022-07-06T09:49:31;19.40;99.90
15821;DHT22;8011;51.650;7.240;2022-07-06T09:52:02;19.40;99.90
15821;DHT22;8011;51.650;7.240;2022-07-06T09:54:28;19.40;99.90
15821;DHT22;8011;51.650;7.240;2022-07-06T09:56:55;19.40;99.90
15821;DHT22;8011;51.650;7.240;2022-07-06T09:59:23;19.30;99.90
15821;DHT22;8011;51.650;7.240;2022-07-06T10:01:56;19.40;99.90
15821;DHT22;8011;51.650;7.240;2022-07-06T10:04:24;19.40;99.90
15821;DHT22;8011;51.650;7.240;2022-07-06T10:06:50;19.40;99.90
15821;DHT22;8011;51.650;7.240;2022-07-06T10:09:18;19.40;99.90
15821;DHT22;8011;51.650;7.240;2022-07-06T10:11:55;19.40;99.90
15821;DHT22;8011;51.650;7.240;2022-07-06T10:14:23;19.60;99.90
15821;DHT22;8011;51.650;7.240;2022-07-06T10:16:50;19.70;99.90
15821;DHT22;8011;51.650;7.240;2022-07-06T10:19:17;19.80;99.90
15821;DHT22;8011;51.650;7.240;2022-07-06T10:21:44;19.90;99.90
15821;DHT22;8011;51.650;7.240;2022-07-06T10:24:11;19.90;99.90
15821;DHT22;8011;51.650;7.240;2022-07-06T10:26:38;20.00;99.90
15821;DHT22;8011;51.650;7.240;2022-07-06T10:29:05;20.10;99.90
15821;DHT22;8011;51.650;7.240;2022-07-06T10:31:33;20.20;99.90
15821;DHT22;8011;51.650;7.240;2022-07-06T10:34:01;20.20;99.90
15821;DHT22;8011;51.650;7.240;2022-07-06T10:36:28;20.00;99.90
15821;DHT22;8011;51.650;7.240;2022-07-06T10:38:54;19.90;99.90
15821;DHT22;8011;51.650;7.240;2022-07-06T10:41:31;19.90;99.90
15821;DHT22;8011;51.650;7.240;2022-07-06T10:43:57;19.80;99.90
15821;DHT22;8011;51.650;7.240;2022-07-06T10:46:28;19.90;99.90
15821;DHT22;8011;51.650;7.240;2022-07-06T10:48:55;20.00;99.90
15821;DHT22;8011;51.650;7.240;2022-07-06T10:51:27;20.10;99.90
15821;DHT22;8011;51.650;7.240;2022-07-06T10:54:00;20.00;99.90
15821;DHT22;8011;51.650;7.240;2022-07-06T10:56:37;19.80;99.90
15821;DHT22;8011;51.650;7.240;2022-07-06T10:59:09;19.70;99.90
15821;DHT22;8011;51.650;7.240;2022-07-06T11:01:35;19.80;99.90
15821;DHT22;8011;51.650;7.240;2022-07-06T11:06:31;20.10;99.90
15821;DHT22;8011;51.650;7.240;2022-07-06T11:09:05;20.10;99.90
15821;DHT22;8011;51.650;7.240;2022-07-06T11:16:58;20.10;99.90
15821;DHT22;8011;51.650;7.240;2022-07-06T11:19:26;20.20;99.90
15821;DHT22;8011;51.650;7.240;2022-07-06T11:22:08;20.30;99.90
15821;DHT22;8011;51.650;7.240;2022-07-06T11:24:37;20.30;99.90
15821;DHT22;8011;51.650;7.240;2022-07-06T11:27:04;20.30;99.90
15821;DHT22;8011;51.650;7.240;2022-07-06T11:29:32;20.30;99.90
15821;DHT22;8011;51.650;7.240;2022-07-06T11:32:00;20.50;99.90
15821;DHT22;8011;51.650;7.240;2022-07-06T11:34:34;20.70;99.90
15821;DHT22;8011;51.650;7.240;2022-07-06T11:37:05;20.80;99.90
15821;DHT22;8011;51.650;7.240;2022-07-06T11:39:37;20.80;99.90
15821;DHT22;8011;51.650;7.240;2022-07-06T11:42:05;21.00;99.90
15821;DHT22;8011;51.650;7.240;2022-07-06T11:44:32;21.00;99.90
15821;DHT22;8011;51.650;7.240;2022-07-06T11:46:58;20.90;99.90
15821;DHT22;8011;51.650;7.240;2022-07-06T11:49:27;20.80;99.90
15821;DHT22;8011;51.650;7.240;2022-07-06T11:51:53;20.80;99.90
15821;DHT22;8011;51.650;7.240;2022-07-06T11:54:20;20.90;99.90
15821;DHT22;8011;51.650;7.240;2022-07-06T11:56:55;20.90;99.90
15821;DHT22;8011;51.650;7.240;2022-07-06T11:59:41;20.90;99.90
15821;DHT22;8011;51.650;7.240;2022-07-06T12:02:10;20.70;99.90
15821;DHT22;8011;51.650;7.240;2022-07-06T12:04:39;20.90;99.90
15821;DHT22;8011;51.650;7.240;2022-07-06T12:07:07;21.00;99.90
15821;DHT22;8011;51.650;7.240;2022-07-06T12:09:35;21.00;99.90
15821;DHT22;8011;51.650;7.240;2022-07-06T12:12:01;21.00;99.90
15821;DHT22;8011;51.650;7.240;2022-07-06T12:14:31;20.90;99.90
15821;DHT22;8011;51.650;7.240;2022-07-06T12:17:06;20.90;99.90
15821;DHT22;8011;51.650;7.240;2022-07-06T12:19:33;20.90;99.90
15821;DHT22;8011;51.650;7.240;2022-07-06T12:21:59;21.00;99.90
15821;DHT22;8011;51.650;7.240;2022-07-06T12:24:28;21.10;99.90
15821;DHT22;8011;51.650;7.240;2022-07-06T12:26:56;21.20;99.90
15821;DHT22;8011;51.650;7.240;2022-07-06T12:29:22;21.30;99.90
15821;DHT22;8011;51.650;7.240;2022-07-06T12:31:57;21.30;99.90
15821;DHT22;8011;51.650;7.240;2022-07-06T12:34:27;21.00;99.90
15821;DHT22;8011;51.650;7.240;2022-07-06T12:36:58;20.90;99.90
15821;DHT22;8011;51.650;7.240;2022-07-06T12:39:26;20.90;99.90
15821;DHT22;8011;51.650;7.240;2022-07-06T12:42:00;20.90;99.90
15821;DHT22;8011;51.650;7.240;2022-07-06T12:44:26;21.00;99.90
15821;DHT22;8011;51.650;7.240;2022-07-06T12:47:09;21.00;99.90
15821;DHT22;8011;51.650;7.240;2022-07-06T12:49:36;21.00;99.90
15821;DHT22;8011;51.650;7.240;2022-07-06T12:52:10;21.10;99.90
15821;DHT22;8011;51.650;7.240;2022-07-06T12:54:47;21.30;99.90
15821;DHT22;8011;51.650;7.240;2022-07-06T12:57:18;21.30;99.90
15821;DHT22;8011;51.650;7.240;2022-07-06T13:02:26;21.30;99.90
15821;DHT22;8011;51.650;7.240;2022-07-06T13:05:02;21.30;99.90
15821;DHT22;8011;51.650;7.240;2022-07-06T13:07:29;21.40;99.90
15821;DHT22;8011;51.650;7.240;2022-07-06T13:10:03;21.30;99.90
15821;DHT22;8011;51.650;7.240;2022-07-06T13:12:29;21.30;99.90
15821;DHT22;8011;51.650;7.240;2022-07-06T13:14:54;21.30;99.90
15821;DHT22;8011;51.650;7.240;2022-07-06T13:17:20;21.30;99.90
15821;DHT22;8011;51.650;7.240;2022-07-06T13:19:46;21.40;99.90
15821;DHT22;8011;51.650;7.240;2022-07-06T13:22:12;21.50;99.90
15821;DHT22;8011;51.650;7.240;2022-07-06T13:24:38;21.50;99.90
15821;DHT22;8011;51.650;7.240;2022-07-06T13:27:04;21.60;99.90
15821;DHT22;8011;51.650;7.240;2022-07-06T13:29:29;21.70;99.90
15821;DHT22;8011;51.650;7.240;2022-07-06T13:31:55;21.80;99.90
15821;DHT22;8011;51.650;7.240;2022-07-06T13:34:21;21.80;99.90
15821;DHT22;8011;51.650;7.240;2022-07-06T13:36:47;21.80;99.90
15821;DHT22;8011;51.650;7.240;2022-07-06T13:39:12;21.90;99.90
15821;DHT22;8011;51.650;7.240;2022-07-06T13:41:38;21.80;99.90
15821;DHT22;8011;51.650;7.240;2022-07-06T13:44:04;21.70;99.90
15821;DHT22;8011;51.650;7.240;2022-07-06T13:46:31;21.50;99.90
15821;DHT22;8011;51.650;7.240;2022-07-06T13:48:57;21.60;99.90
15821;DHT22;8011;51.650;7.240;2022-07-06T13:51:24;21.50;99.90
15821;DHT22;8011;51.650;7.240;2022-07-06T13:53:52;21.50;99.90
15821;DHT22;8011;51.650;7.240;2022-07-06T13:56:18;21.50;99.90
15821;DHT22;8011;51.650;7.240;2022-07-06T13:58:44;21.50;99.90
15821;DHT22;8011;51.650;7.240;2022-07-06T14:01:12;21.50;99.90
15821;DHT22;8011;51.650;7.240;2022-07-06T14:03:37;21.60;99.90
15821;DHT22;8011;51.650;7.240;2022-07-06T14:06:05;21.60;99.90
15821;DHT22;8011;51.650;7.240;2022-07-06T14:08:37;21.60;99.90
15821;DHT22;8011;51.650;7.240;2022-07-06T14:11:05;21.70;99.90
15821;DHT22;8011;51.650;7.240;2022-07-06T14:13:31;21.70;99.90
15821;DHT22;8011;51.650;7.240;2022-07-06T14:15:57;21.70;99.90
15821;DHT22;8011;51.650;7.240;2022-07-06T14:18:23;21.50;99.90
15821;DHT22;8011;51.650;7.240;2022-07-06T14:20:51;21.50;99.90
15821;DHT22;8011;51.650;7.240;2022-07-06T14:23:18;21.50;99.90
15821;DHT22;8011;51.650;7.240;2022-07-06T14:25:44;21.70;99.90
15821;DHT22;8011;51.650;7.240;2022-07-06T14:28:11;21.70;99.90
15821;DHT22;8011;51.650;7.240;2022-07-06T14:30:39;21.50;99.90
15821;DHT22;8011;51.650;7.240;2022-07-06T14:33:07;21.60;99.90
15821;DHT22;8011;51.650;7.240;2022-07-06T14:35:51;21.60;99.90
15821;DHT22;8011;51.650;7.240;2022-07-06T14:38:18;21.60;99.90
15821;DHT22;8011;51.650;7.240;2022-07-06T14:40:44;21.60;99.90
15821;DHT22;8011;51.650;7.240;2022-07-06T14:43:10;21.60;99.90
15821;DHT22;8011;51.650;7.240;2022-07-06T14:45:36;21.70;99.90
15821;DHT22;8011;51.650;7.240;2022-07-06T14:48:02;21.70;99.90
15821;DHT22;8011;51.650;7.240;2022-07-06T14:50:28;21.80;99.90
15821;DHT22;8011;51.650;7.240;2022-07-06T14:52:55;21.80;99.90
15821;DHT22;8011;51.650;7.240;2022-07-06T14:55:21;21.90;99.90
15821;DHT22;8011;51.650;7.240;2022-07-06T14:57:47;21.80;99.90
15821;DHT22;8011;51.650;7.240;2022-07-06T15:00:14;21.70;99.90
15821;DHT22;8011;51.650;7.240;2022-07-06T15:02:40;21.50;99.90
15821;DHT22;8011;51.650;7.240;2022-07-06T15:05:07;21.40;99.90
15821;DHT22;8011;51.650;7.240;2022-07-06T15:07:33;21.50;99.90
15821;DHT22;8011;51.650;7.240;2022-07-06T15:09:59;21.60;99.90
15821;DHT22;8011;51.650;7.240;2022-07-06T15:12:25;21.80;99.90
15821;DHT22;8011;51.650;7.240;2022-07-06T15:17:23;22.10;99.90
15821;DHT22;8011;51.650;7.240;2022-07-06T15:19:49;22.20;99.90
15821;DHT22;8011;51.650;7.240;2022-07-06T15:22:15;22.30;99.90
15821;DHT22;8011;51.650;7.240;2022-07-06T15:24:41;22.30;99.90
15821;DHT22;8011;51.650;7.240;2022-07-06T15:27:06;22.30;99.90
15821;DHT22;8011;51.650;7.240;2022-07-06T15:29:33;22.20;99.90
15821;DHT22;8011;51.650;7.240;2022-07-06T15:31:58;22.00;99.90
15821;DHT22;8011;51.650;7.240;2022-07-06T15:34:24;22.00;99.90
15821;DHT22;8011;51.650;7.240;2022-07-06T15:36:50;22.00;99.90
15821;DHT22;8011;51.650;7.240;2022-07-06T15:39:16;22.00;99.90
15821;DHT22;8011;51.650;7.240;2022-07-06T15:41:42;22.00;99.90
15821;DHT22;8011;51.650;7.240;2022-07-06T15:44:08;22.20;99.90
15821;DHT22;8011;51.650;7.240;2022-07-06T15:46:34;22.20;99.90
15821;DHT22;8011;51.650;7.240;2022-07-06T15:49:00;22.10;99.90
15821;DHT22;8011;51.650;7.240;2022-07-06T15:51:26;22.10;99.90
15821;DHT22;8011;51.650;7.240;2022-07-06T15:53:52;22.10;99.90
15821;DHT22;8011;51.650;7.240;2022-07-06T15:56:18;22.10;99.80
15821;DHT22;8011;51.650;7.240;2022-07-06T15:58:43;22.10;99.90
15821;DHT22;8011;51.650;7.240;2022-07-06T16:01:09;22.20;99.90
15821;DHT22;8011;51.650;7.240;2022-07-06T16:03:35;22.10;99.90
15821;DHT22;8011;51.650;7.240;2022-07-06T16:06:03;22.10;99.90
15821;DHT22;8011;51.650;7.240;2022-07-06T16:08:29;22.10;99.90
15821;DHT22;8011;51.650;7.240;2022-07-06T16:10:55;22.20;99.90
15821;DHT22;8011;51.650;7.240;2022-07-06T16:13:21;22.10;99.90
15821;DHT22;8011;51.650;7.240;2022-07-06T16:15:47;22.20;99.90
15821;DHT22;8011;51.650;7.240;2022-07-06T16:18:12;22.20;99.90
15821;DHT22;8011;51.650;7.240;2022-07-06T16:20:38;22.30;99.90
15821;DHT22;8011;51.650;7.240;2022-07-06T16:23:04;22.20;99.90
15821;DHT22;8011;51.650;7.240;2022-07-06T16:25:30;22.20;99.90
15821;DHT22;8011;51.650;7.240;2022-07-06T16:27:55;22.20;99.90
15821;DHT22;8011;51.650;7.240;2022-07-06T16:30:23;22.20;99.90
15821;DHT22;8011;51.650;7.240;2022-07-06T16:32:49;22.10;99.90
15821;DHT22;8011;51.650;7.240;2022-07-06T16:35:15;22.00;99.90
15821;DHT22;8011;51.650;7.240;2022-07-06T16:37:41;22.10;99.90
15821;DHT22;8011;51.650;7.240;2022-07-06T16:40:08;22.20;99.90
15821;DHT22;8011;51.650;7.240;2022-07-06T16:42:34;22.10;99.90
15821;DHT22;8011;51.650;7.240;2022-07-06T16:44:59;22.10;99.90
15821;DHT22;8011;51.650;7.240;2022-07-06T16:47:28;22.10;99.90
15821;DHT22;8011;51.650;7.240;2022-07-06T16:49:54;22.00;99.90
15821;DHT22;8011;51.650;7.240;2022-07-06T16:52:20;21.90;99.90
15821;DHT22;8011;51.650;7.240;2022-07-06T16:54:45;22.00;99.90
15821;DHT22;8011;51.650;7.240;2022-07-06T16:57:11;22.00;99.90
15821;DHT22;8011;51.650;7.240;2022-07-06T16:59:37;22.10;99.90
15821;DHT22;8011;51.650;7.240;2022-07-06T17:02:03;22.00;99.90
15821;DHT22;8011;51.650;7.240;2022-07-06T17:04:28;21.90;99.90
15821;DHT22;8011;51.650;7.240;2022-07-06T17:06:54;21.90;99.90
15821;DHT22;8011;51.650;7.240;2022-07-06T17:09:20;21.80;99.90
15821;DHT22;8011;51.650;7.240;2022-07-06T17:11:45;21.70;99.90
15821;DHT22;8011;51.650;7.240;2022-07-06T17:14:11;21.60;99.90
15821;DHT22;8011;51.650;7.240;2022-07-06T17:16:37;21.60;99.90
15821;DHT22;8011;51.650;7.240;2022-07-06T17:19:02;21.60;99.90
15821;DHT22;8011;51.650;7.240;2022-07-06T17:21:28;21.50;99.90
15821;DHT22;8011;51.650;7.240;2022-07-06T17:23:53;21.60;99.90
15821;DHT22;8011;51.650;7.240;2022-07-06T17:26:21;21.50;99.90
15821;DHT22;8011;51.650;7.240;2022-07-06T17:28:46;21.60;99.90
15821;DHT22;8011;51.650;7.240;2022-07-06T17:31:12;21.60;99.90
15821;DHT22;8011;51.650;7.240;2022-07-06T17:33:37;21.60;99.90
15821;DHT22;8011;51.650;7.240;2022-07-06T17:36:03;21.70;99.90
15821;DHT22;8011;51.650;7.240;2022-07-06T17:38:29;21.70;99.90
15821;DHT22;8011;51.650;7.240;2022-07-06T17:40:56;21.70;99.90
15821;DHT22;8011;51.650;7.240;2022-07-06T17:43:21;21.60;99.90
15821;DHT22;8011;51.650;7.240;2022-07-06T17:45:47;21.60;99.90
15821;DHT22;8011;51.650;7.240;2022-07-06T17:48:13;21.60;99.90
15821;DHT22;8011;51.650;7.240;2022-07-06T17:50:38;21.60;99.90
15821;DHT22;8011;51.650;7.240;2022-07-06T17:53:04;21.60;99.90
15821;DHT22;8011;51.650;7.240;2022-07-06T17:55:30;21.60;99.90
15821;DHT22;8011;51.650;7.240;2022-07-06T17:57:56;21.50;99.90
15821;DHT22;8011;51.650;7.240;2022-07-06T18:00:21;21.50;99.90
15821;DHT22;8011;51.650;7.240;2022-07-06T18:02:47;21.50;99.90
15821;DHT22;8011;51.650;7.240;2022-07-06T18:05:13;21.30;99.90
15821;DHT22;8011;51.650;7.240;2022-07-06T18:07:41;21.30;99.90
15821;DHT22;8011;51.650;7.240;2022-07-06T18:10:07;21.20;99.90
15821;DHT22;8011;51.650;7.240;2022-07-06T18:12:33;21.20;99.90
15821;DHT22;8011;51.650;7.240;2022-07-06T18:14:59;21.30;99.90
15821;DHT22;8011;51.650;7.240;2022-07-06T18:17:25;21.20;99.90
15821;DHT22;8011;51.650;7.240;2022-07-06T18:19:51;21.30;99.90
15821;DHT22;8011;51.650;7.240;2022-07-06T18:22:17;21.20;99.90
15821;DHT22;8011;51.650;7.240;2022-07-06T18:24:43;21.10;99.90
15821;DHT22;8011;51.650;7.240;2022-07-06T18:27:08;21.00;99.90
15821;DHT22;8011;51.650;7.240;2022-07-06T18:29:34;20.80;99.90
15821;DHT22;8011;51.650;7.240;2022-07-06T18:32:00;20.80;99.90
15821;DHT22;8011;51.650;7.240;2022-07-06T18:34:25;20.80;99.90
15821;DHT22;8011;51.650;7.240;2022-07-06T18:36:52;20.80;99.90
15821;DHT22;8011;51.650;7.240;2022-07-06T18:39:17;20.80;99.90
15821;DHT22;8011;51.650;7.240;2022-07-06T18:41:44;20.60;99.90
15821;DHT22;8011;51.650;7.240;2022-07-06T18:44:10;20.60;99.90
15821;DHT22;8011;51.650;7.240;2022-07-06T18:46:36;20.60;99.90
15821;DHT22;8011;51.650;7.240;2022-07-06T18:49:01;20.60;99.90
15821;DHT22;8011;51.650;7.240;2022-07-06T18:51:28;20.60;99.90
15821;DHT22;8011;51.650;7.240;2022-07-06T18:53:54;20.60;99.90
15821;DHT22;8011;51.650;7.240;2022-07-06T18:56:21;20.60;99.90
15821;DHT22;8011;51.650;7.240;2022-07-06T18:58:46;20.60;99.90
15821;DHT22;8011;51.650;7.240;2022-07-06T19:01:18;20.60;99.90
15821;DHT22;8011;51.650;7.240;2022-07-06T19:03:44;20.50;99.90